Flight Track Log - Related Links

Times and Time Zones

All times are in EDT time to prevent confusion due to time zone crossing. See the ASQ4179 flight status page for this flight to view local times or setup timezone preferences in your user account.

Time Position Orientation Groundspeed Altitude Reporting Facility
EDT Latitude Longitude Course Direction KTS MPH feet Rate Location/Type
Mon 06:07:37 AM 35.8644 -78.8164 219° Southwest 171 197 1,100  Level Washington Center
Mon 06:09:51 AM 35.8231 -78.9503 249° West 252 290 5,300 2,062 Climbing Washington Center
Mon 06:10:52 AM 35.8247 -79.0403 271° West 258 297 7,800 1,967 Climbing Washington Center
Mon 06:11:00 AM 35.8333 -79.2963 270° West  Level FlightAware Approximate
Mon 06:12:00 AM 35.8195 -79.4242 262° West  Level FlightAware Approximate
Mon 06:12:54 AM 35.8328 -79.2361 273° West 263 303 11,300  Level Atlanta Center
Mon 06:13:00 AM 35.8043 -79.5457 219° Southwest  Level FlightAware Approximate
Mon 06:13:54 AM 35.8311 -79.3489 269° West 304 350 12,300  Level Atlanta Center
Mon 06:14:54 AM 35.8211 -79.4725 264° West 342 394 13,200 1,000 Climbing Atlanta Center
Mon 06:15:54 AM 35.8050 -79.6014 261° West 363 418 14,300 1,300 Climbing Atlanta Center
Mon 06:16:54 AM 35.7825 -79.7333 258° West 370 426 15,800 1,450 Climbing Atlanta Center
Mon 06:17:54 AM 35.7636 -79.8469 258° West 376 433 17,200 1,250 Climbing Atlanta Center
Mon 06:18:54 AM 35.7428 -79.9733 259° West 371 427 18,300 1,250 Climbing Atlanta Center
Mon 06:19:54 AM 35.7217 -80.0919 258° West 371 427 19,700 1,400 Climbing Atlanta Center
Mon 06:20:54 AM 35.7003 -80.2106 258° West 371 427 21,100 1,550 Climbing Atlanta Center
Mon 06:21:54 AM 35.6750 -80.3422 257° West 366 421 22,800 1,550 Climbing Atlanta Center
Mon 06:22:54 AM 35.6578 -80.4631 260° West 361 415 24,200 1,300 Climbing Atlanta Center
Mon 06:23:54 AM 35.6442 -80.5683 261° West 354 407 25,400 1,200 Climbing Atlanta Center
Mon 06:24:54 AM 35.6308 -80.6867 262° West 354 407 26,600 1,250 Climbing Atlanta Center
Mon 06:25:54 AM 35.6153 -80.8047 261° West 354 407 27,900 1,300 Climbing Atlanta Center
Mon 06:26:54 AM 35.5994 -80.9203 260° West 354 407 29,200 1,300 Climbing Atlanta Center
Mon 06:27:54 AM 35.5836 -81.0408 261° West 354 407 30,500 1,250 Climbing Atlanta Center
Mon 06:28:54 AM 35.5656 -81.1589 259° West 354 407 31,700 1,350 Climbing Atlanta Center
Mon 06:29:54 AM 35.5519 -81.2897 263° West 354 407 33,200 1,250 Climbing Atlanta Center
Mon 06:30:54 AM 35.5336 -81.4075 259° West 364 419 34,200 750 Climbing Atlanta Center
Mon 06:31:54 AM 35.5211 -81.5125 262° West 358 412 34,700 450 Climbing Atlanta Center
Mon 06:32:54 AM 35.5047 -81.6253 260° West 347 399 35,100 450 Climbing Atlanta Center
Mon 06:33:54 AM 35.4714 -81.7361 250° West 342 394 35,600 450 Climbing Atlanta Center
Mon 06:34:54 AM 35.4339 -81.8492 248° West 354 407 36,000 200 Climbing Atlanta Center
Mon 06:35:54 AM 35.3983 -81.9647 249° West 360 414 36,000  Level Atlanta Center
Mon 06:36:54 AM 35.3586 -82.0881 248° West 380 437 36,000  Level Atlanta Center
Mon 06:37:54 AM 35.3189 -82.2161 249° West 396 456 36,000  Level Atlanta Center
Mon 06:38:54 AM 35.2708 -82.3597 248° West 406 467 36,000  Level Atlanta Center
Mon 06:39:54 AM 35.2267 -82.4928 248° West 419 482 36,000  Level Atlanta Center
Mon 06:40:54 AM 35.1842 -82.6156 247° West 425 489 36,000  Level Atlanta Center
Mon 06:41:54 AM 35.1419 -82.7511 249° West 430 495 36,000  Level Atlanta Center
Mon 06:42:54 AM 35.0953 -82.8914 248° West 437 503 36,000  Level Atlanta Center
Mon 06:43:54 AM 35.0486 -83.0289 248° West 443 510 36,000  Level Atlanta Center
Mon 06:44:54 AM 35.0017 -83.1664 247° West 438 504 36,000  Level Atlanta Center
Mon 06:45:54 AM 34.9544 -83.3089 248° West 444 511 36,000  Level Atlanta Center
Mon 06:46:54 AM 34.9094 -83.4411 247° West 438 504 36,000  Level Atlanta Center
Mon 06:47:54 AM 34.8642 -83.5781 248° West 444 511 36,000  Level Atlanta Center
Mon 06:48:54 AM 34.8164 -83.7150 247° West 438 504 36,000  Level Atlanta Center
Mon 06:49:54 AM 34.7667 -83.8517 246° West 443 510 36,000  Level Atlanta Center
Mon 06:50:54 AM 34.7208 -83.9908 248° West 449 517 36,000  Level Atlanta Center
Mon 06:51:54 AM 34.6708 -84.1297 246° West 449 517 36,000  Level Atlanta Center
Mon 06:52:54 AM 34.6267 -84.2686 249° West 449 517 36,000  Level Atlanta Center
Mon 06:53:54 AM 34.5806 -84.4047 248° West 444 511 36,000  Level Atlanta Center
Mon 06:54:54 AM 34.5278 -84.5556 247° West 444 511 36,000  Level Atlanta Center
Mon 06:55:54 AM 34.4772 -84.6914 246° West 439 505 36,000  Level Atlanta Center
Mon 06:56:54 AM 34.4303 -84.8297 248° West 439 505 36,000  Level Atlanta Center
Mon 06:57:54 AM 34.3836 -84.9650 247° West 439 505 36,000  Level Atlanta Center
Mon 06:58:54 AM 34.3344 -85.1003 246° West 439 505 36,000  Level Atlanta Center
Mon 06:59:54 AM 34.2853 -85.2356 246° West 439 505 36,000  Level Atlanta Center
Mon 07:00:54 AM 34.2378 -85.3706 247° West 439 505 36,000  Level Atlanta Center
Mon 07:01:54 AM 34.1906 -85.5028 247° West 433 498 36,000  Level Atlanta Center
Mon 07:02:54 AM 34.1408 -85.6350 246° West 443 510 36,000  Level Atlanta Center
Mon 07:03:54 AM 34.0953 -85.7697 248° West 437 503 36,000  Level Atlanta Center
Mon 07:04:54 AM 34.0433 -85.8964 244° Southwest 426 490 36,000  Level Atlanta Center
Mon 07:05:54 AM 33.9931 -86.0306 246° West 426 490 36,000  Level Atlanta Center
Mon 07:06:54 AM 33.9408 -86.1672 245° Southwest 438 504 36,000  Level Atlanta Center
Mon 07:07:54 AM 33.8925 -86.3011 247° West 443 510 36,000  Level Atlanta Center
Mon 07:08:54 AM 33.8419 -86.4372 246° West 443 510 36,000  Level Atlanta Center
Mon 07:09:54 AM 33.7911 -86.5708 245° Southwest 443 510 36,000  Level Atlanta Center
Mon 07:10:54 AM 33.7403 -86.7067 246° West 443 510 36,000  Level Atlanta Center
Mon 07:11:54 AM 33.6894 -86.8375 245° Southwest 443 510 36,000  Level Atlanta Center
Mon 07:12:54 AM 33.6403 -86.9731 246° West 438 504 36,000  Level Atlanta Center
Mon 07:13:54 AM 33.5953 -87.1114 249° West 438 504 36,000  Level Atlanta Center
Mon 07:14:54 AM 33.5481 -87.2442 247° West 444 511 36,000  Level Atlanta Center
Mon 07:16:07 AM 33.4928 -87.4131 249° West 432 497 36,000  Level Memphis Center
Mon 07:17:07 AM 33.4481 -87.5464 248° West 432 497 36,000  Level Memphis Center
Mon 07:18:07 AM 33.3986 -87.6797 246° West 432 497 36,000  Level Memphis Center
Mon 07:19:07 AM 33.3536 -87.8156 248° West 443 510 36,000  Level Memphis Center
Mon 07:20:07 AM 33.3061 -87.9511 247° West 443 510 36,000  Level Memphis Center
Mon 07:21:07 AM 33.2586 -88.0867 247° West 438 504 36,000  Level Memphis Center
Mon 07:22:07 AM 33.2208 -88.1969 248° West 438 504 36,000  Level Memphis Center
Mon 07:23:07 AM 33.1733 -88.3394 248° West 438 504 36,000  Level Memphis Center
Mon 07:24:07 AM 33.1253 -88.4769 247° West 443 510 36,000  Level Memphis Center
Mon 07:25:07 AM 33.0792 -88.6094 247° West 443 510 36,000  Level Memphis Center
Mon 07:26:07 AM 33.0289 -88.7442 246° West 438 504 36,000  Level Memphis Center
Mon 07:27:07 AM 32.9806 -88.8814 247° West 438 504 36,000  Level Memphis Center
Mon 07:28:07 AM 32.9319 -89.0158 247° West 443 510 36,000  Level Memphis Center
Mon 07:29:07 AM 32.8811 -89.1525 246° West 443 510 36,000  Level Memphis Center
Mon 07:30:07 AM 32.8322 -89.2867 247° West 443 510 36,000  Level Memphis Center
Mon 07:31:07 AM 32.7831 -89.4208 246° West 443 510 36,000  Level Memphis Center
Mon 07:32:07 AM 32.7339 -89.5572 247° West 443 510 36,000  Level Memphis Center
Mon 07:33:07 AM 32.6825 -89.6883 245° Southwest 437 503 36,000  Level Memphis Center
Mon 07:34:07 AM 32.6331 -89.8219 246° West 442 509 36,000  Level Memphis Center
Mon 07:35:07 AM 32.5856 -89.9531 247° West 442 509 36,000  Level Memphis Center
Mon 07:36:07 AM 32.5381 -90.0839 247° West 437 503 36,000  Level Memphis Center
Mon 07:37:07 AM 32.4861 -90.2094 244° Southwest 437 503 36,000  Level Memphis Center
Mon 07:38:07 AM 32.4214 -90.3328 238° Southwest 437 503 36,000  Level Memphis Center
Mon 07:39:07 AM 32.3586 -90.4558 239° Southwest 442 509 36,000  Level Memphis Center
Mon 07:40:44 AM 32.2508 -90.6572 238° Southwest 435 501 36,000  Level Houston Center
Mon 07:41:45 AM 32.1881 -90.7781 238° Southwest 434 499 36,000  Level Houston Center
Mon 07:42:46 AM 32.1314 -90.8867 238° Southwest 431 496 36,000  Level Houston Center
Mon 07:43:47 AM 32.0675 -91.0069 238° Southwest 432 497 36,000  Level Houston Center
Mon 07:44:48 AM 32.0028 -91.1256 237° Southwest 432 497 36,000  Level Houston Center
Mon 07:45:49 AM 31.9267 -91.2683 238° Southwest 431 496 36,000  Level Houston Center
Mon 07:46:50 AM 31.8628 -91.3878 238° Southwest 430 495 36,000  Level Houston Center
Mon 07:47:51 AM 31.7989 -91.5061 238° Southwest 430 495 36,000  Level Houston Center
Mon 07:48:52 AM 31.7350 -91.6250 238° Southwest 431 496 36,000  Level Houston Center
Mon 07:49:54 AM 31.6708 -91.7436 238° Southwest 431 496 36,000  Level Houston Center
Mon 07:50:55 AM 31.6072 -91.8619 238° Southwest 430 495 36,000  Level Houston Center
Mon 07:51:56 AM 31.5428 -91.9814 238° Southwest 432 497 36,000  Level Houston Center
Mon 07:52:57 AM 31.4689 -92.1128 237° Southwest 428 493 36,000  Level Houston Center
Mon 07:53:58 AM 31.4053 -92.2300 238° Southwest 428 493 36,000  Level Houston Center
Mon 07:55:00 AM 31.3422 -92.3439 237° Southwest 422 486 36,000  Level Houston Center
Mon 07:56:01 AM 31.2792 -92.4578 237° Southwest 419 482 36,000  Level Houston Center
Mon 07:57:02 AM 31.2158 -92.5714 237° Southwest 419 482 36,000  Level Houston Center
Mon 07:58:03 AM 31.1533 -92.6850 237° Southwest 417 480 36,000  Level Houston Center
Mon 07:59:04 AM 31.0906 -92.7975 237° Southwest 415 478 36,000  Level Houston Center
Mon 08:00:06 AM 31.0283 -92.9081 237° Southwest 411 473 36,000 -49 Level Houston Center
Mon 08:01:07 AM 30.9653 -93.0208 237° Southwest 415 478 35,900 -541 Descending Houston Center
Mon 08:02:08 AM 30.9000 -93.1369 237° Southwest 430 495 34,900 -1,328 Descending Houston Center
Mon 08:03:09 AM 30.8172 -93.2825 237° Southwest 451 519 33,200 -2,049 Descending Houston Center
Mon 08:04:11 AM 30.7486 -93.4044 237° Southwest 454 522 30,700 -2,439 Descending Houston Center
Mon 08:05:12 AM 30.6822 -93.5231 237° Southwest 445 512 28,200 -2,361 Descending Houston Center
Mon 08:06:13 AM 30.6156 -93.6400 236° Southwest 441 507 25,900 -2,244 Descending Houston Center
Mon 08:07:15 AM 30.5486 -93.7561 236° Southwest 440 506 23,600 -2,341 Descending Houston Center
Mon 08:08:16 AM 30.4825 -93.8708 236° Southwest 434 499 21,100 -2,705 Descending Houston Center
Mon 08:09:17 AM 30.4253 -94.0172 246° West 413 475 18,100 -2,488 Descending Houston Center
Mon 08:10:19 AM 30.3858 -94.1344 249° West 397 457 16,000 -2,160 Descending Houston Center
Mon 08:10:57 AM 30.3619 -94.2122 250° West 371 427 14,500 -2,222 Descending Houston Center
Mon 08:11:40 AM 30.3128 -94.2672 224° Southwest 347 399 13,000 -1,714 Descending Houston Center
Mon 08:12:21 AM 30.2692 -94.3069 218° Southwest 345 397 12,100 -583 Descending Houston Center
Mon 08:13:23 AM 30.1953 -94.3733 218° Southwest 340 391 12,000 -585 Descending Houston Center
Mon 08:14:24 AM 30.1553 -94.4725 245° Southwest 338 389 10,900 -1,220 Descending Houston Center
Mon 08:15:26 AM 30.1156 -94.5706 245° Southwest 311 358 9,500 -1,220 Descending Houston Center
Mon 08:16:27 AM 30.0836 -94.6511 245° Southwest 284 327 8,400 -1,209 Descending Houston Center
Mon 08:17:40 AM 30.0425 -94.7494 244° Southwest 268 308 6,800 -1,220 Descending Houston Center
Mon 08:18:30 AM 30.0219 -94.8044 247° West 261 300 5,900 -1,351 Descending Houston Center
Mon 08:19:31 AM 29.9931 -94.8786 246° West 256 295 4,300 -1,415 Descending Houston Center
Mon 08:20:33 AM 29.9775 -94.9536 257° West 245 282 3,000 -1,073 Descending Houston Center
Mon 08:21:34 AM 29.9783 -95.0358 271° West 255 293 2,100 -455 Descending Houston Center
Mon 08:22:45 AM 29.9761 -95.1367 269° West 187 215 2,000 -49 Descending Houston Center
Mon 08:23:37 AM 29.9769 -95.1822 271° West 200 230 2,000 -421 Level Houston Center
Mon 08:24:39 AM 29.9778 -95.2369 271° West 182 209 1,200 -774 Descending Houston Center
Mon 08:25:41 AM 29.9778 -95.2836 270° West 165 190 400 -439 Descending Houston Center
Mon 08:26:42 AM 29.9767 -95.3300 268° West 162 186 300 -98 Descending Houston Center
Mon 08:28:00 AM 29.9833 -95.3333 275° West  Level FlightAware Approximate

Login

Don't have an account? Register now (free) for customized features, flight alerts, and more!